<?xml version="1.0" encoding="UTF-8" standalone="no" ?>
<gpx xmlns="http://www.topografix.com/GPX/1/1" xmlns:xsi="http://www.w3.org/2001/XMLSchema-instance" xsi:schemaLocation="http://www.topografix.com/GPX/1/1 http://www.topografix.com/GPX/1/1/gpx.xsd" version="1.1" creator="VisuGPX - https://www.visugpx.com">
  <metadata>
    <name>bor et bar</name>
  </metadata>
  <trk>
    <name><![CDATA[10510859-Dim15/09]]></name>
    <trkseg>
      <trkpt lat="44.21168" lon="2.07336">
        <ele>381</ele>
        <time>2019-09-14T21:20:41Z</time>
      </trkpt>
      <trkpt lat="44.2118" lon="2.07359">
        <ele>383</ele>
        <time>2019-09-14T21:20:46Z</time>
      </trkpt>
      <trkpt lat="44.2119" lon="2.07375">
        <ele>384</ele>
        <time>2019-09-14T21:20:49Z</time>
      </trkpt>
      <trkpt lat="44.2121" lon="2.07386">
        <ele>386</ele>
        <time>2019-09-14T21:20:54Z</time>
      </trkpt>
      <trkpt lat="44.21222" lon="2.07397">
        <ele>388</ele>
        <time>2019-09-14T21:20:58Z</time>
      </trkpt>
      <trkpt lat="44.21229" lon="2.0741">
        <ele>388</ele>
        <time>2019-09-14T21:21:00Z</time>
      </trkpt>
      <trkpt lat="44.21231" lon="2.07425">
        <ele>388</ele>
        <time>2019-09-14T21:21:03Z</time>
      </trkpt>
      <trkpt lat="44.2123" lon="2.07458">
        <ele>388</ele>
        <time>2019-09-14T21:21:08Z</time>
      </trkpt>
      <trkpt lat="44.21233" lon="2.07467">
        <ele>388</ele>
        <time>2019-09-14T21:21:10Z</time>
      </trkpt>
      <trkpt lat="44.21238" lon="2.07476">
        <ele>389</ele>
        <time>2019-09-14T21:21:12Z</time>
      </trkpt>
      <trkpt lat="44.21256" lon="2.07495">
        <ele>391</ele>
        <time>2019-09-14T21:21:17Z</time>
      </trkpt>
      <trkpt lat="44.21262" lon="2.07508">
        <ele>392</ele>
        <time>2019-09-14T21:21:20Z</time>
      </trkpt>
      <trkpt lat="44.21261" lon="2.07527">
        <ele>392</ele>
        <time>2019-09-14T21:21:23Z</time>
      </trkpt>
      <trkpt lat="44.21255" lon="2.07561">
        <ele>390</ele>
        <time>2019-09-14T21:21:29Z</time>
      </trkpt>
      <trkpt lat="44.21253" lon="2.07586">
        <ele>390</ele>
        <time>2019-09-14T21:21:33Z</time>
      </trkpt>
      <trkpt lat="44.21261" lon="2.07652">
        <ele>392</ele>
        <time>2019-09-14T21:21:44Z</time>
      </trkpt>
      <trkpt lat="44.2126" lon="2.07673">
        <ele>393</ele>
        <time>2019-09-14T21:21:48Z</time>
      </trkpt>
      <trkpt lat="44.21256" lon="2.07693">
        <ele>393</ele>
        <time>2019-09-14T21:21:51Z</time>
      </trkpt>
      <trkpt lat="44.2122" lon="2.07767">
        <ele>398</ele>
        <time>2019-09-14T21:22:06Z</time>
      </trkpt>
      <trkpt lat="44.21198" lon="2.07835">
        <ele>404</ele>
        <time>2019-09-14T21:22:19Z</time>
      </trkpt>
      <trkpt lat="44.21187" lon="2.07855">
        <ele>405</ele>
        <time>2019-09-14T21:22:23Z</time>
      </trkpt>
      <trkpt lat="44.21178" lon="2.07886">
        <ele>406</ele>
        <time>2019-09-14T21:22:29Z</time>
      </trkpt>
      <trkpt lat="44.2118" lon="2.07945">
        <ele>409</ele>
        <time>2019-09-14T21:22:39Z</time>
      </trkpt>
      <trkpt lat="44.21182" lon="2.07961">
        <ele>409</ele>
        <time>2019-09-14T21:22:41Z</time>
      </trkpt>
      <trkpt lat="44.21192" lon="2.07977">
        <ele>411</ele>
        <time>2019-09-14T21:22:45Z</time>
      </trkpt>
      <trkpt lat="44.21213" lon="2.07995">
        <ele>414</ele>
        <time>2019-09-14T21:22:51Z</time>
      </trkpt>
      <trkpt lat="44.21231" lon="2.08017">
        <ele>417</ele>
        <time>2019-09-14T21:22:56Z</time>
      </trkpt>
      <trkpt lat="44.21269" lon="2.08054">
        <ele>424</ele>
        <time>2019-09-14T21:23:07Z</time>
      </trkpt>
      <trkpt lat="44.21276" lon="2.08059">
        <ele>425</ele>
        <time>2019-09-14T21:23:09Z</time>
      </trkpt>
      <trkpt lat="44.21316" lon="2.08065">
        <ele>433</ele>
        <time>2019-09-14T21:23:18Z</time>
      </trkpt>
      <trkpt lat="44.21318" lon="2.08071">
        <ele>434</ele>
        <time>2019-09-14T21:23:19Z</time>
      </trkpt>
      <trkpt lat="44.21319" lon="2.08085">
        <ele>435</ele>
        <time>2019-09-14T21:23:22Z</time>
      </trkpt>
      <trkpt lat="44.21317" lon="2.08103">
        <ele>436</ele>
        <time>2019-09-14T21:23:25Z</time>
      </trkpt>
      <trkpt lat="44.2131" lon="2.0814">
        <ele>438</ele>
        <time>2019-09-14T21:23:31Z</time>
      </trkpt>
      <trkpt lat="44.21301" lon="2.08172">
        <ele>439</ele>
        <time>2019-09-14T21:23:37Z</time>
      </trkpt>
      <trkpt lat="44.21299" lon="2.08193">
        <ele>440</ele>
        <time>2019-09-14T21:23:40Z</time>
      </trkpt>
      <trkpt lat="44.21302" lon="2.08202">
        <ele>441</ele>
        <time>2019-09-14T21:23:42Z</time>
      </trkpt>
      <trkpt lat="44.21356" lon="2.08238">
        <ele>447</ele>
        <time>2019-09-14T21:23:56Z</time>
      </trkpt>
      <trkpt lat="44.21381" lon="2.08177">
        <ele>447</ele>
        <time>2019-09-14T21:24:08Z</time>
      </trkpt>
      <trkpt lat="44.21406" lon="2.08125">
        <ele>448</ele>
        <time>2019-09-14T21:24:18Z</time>
      </trkpt>
      <trkpt lat="44.21414" lon="2.08106">
        <ele>448</ele>
        <time>2019-09-14T21:24:22Z</time>
      </trkpt>
      <trkpt lat="44.21428" lon="2.08014">
        <ele>447</ele>
        <time>2019-09-14T21:24:38Z</time>
      </trkpt>
      <trkpt lat="44.21438" lon="2.07884">
        <ele>444</ele>
        <time>2019-09-14T21:25:00Z</time>
      </trkpt>
      <trkpt lat="44.2145" lon="2.07803">
        <ele>440</ele>
        <time>2019-09-14T21:25:13Z</time>
      </trkpt>
      <trkpt lat="44.21454" lon="2.07759">
        <ele>438</ele>
        <time>2019-09-14T21:25:21Z</time>
      </trkpt>
      <trkpt lat="44.21454" lon="2.07722">
        <ele>436</ele>
        <time>2019-09-14T21:25:27Z</time>
      </trkpt>
      <trkpt lat="44.21451" lon="2.07679">
        <ele>432</ele>
        <time>2019-09-14T21:25:34Z</time>
      </trkpt>
      <trkpt lat="44.21449" lon="2.07663">
        <ele>432</ele>
        <time>2019-09-14T21:25:37Z</time>
      </trkpt>
      <trkpt lat="44.21452" lon="2.07627">
        <ele>430</ele>
        <time>2019-09-14T21:25:43Z</time>
      </trkpt>
      <trkpt lat="44.21449" lon="2.07591">
        <ele>428</ele>
        <time>2019-09-14T21:25:49Z</time>
      </trkpt>
      <trkpt lat="44.21457" lon="2.07546">
        <ele>427</ele>
        <time>2019-09-14T21:25:57Z</time>
      </trkpt>
      <trkpt lat="44.21461" lon="2.0754">
        <ele>427</ele>
        <time>2019-09-14T21:25:58Z</time>
      </trkpt>
      <trkpt lat="44.21464" lon="2.07496">
        <ele>425</ele>
        <time>2019-09-14T21:26:06Z</time>
      </trkpt>
      <trkpt lat="44.21462" lon="2.0745">
        <ele>426</ele>
        <time>2019-09-14T21:26:13Z</time>
      </trkpt>
      <trkpt lat="44.21457" lon="2.07407">
        <ele>426</ele>
        <time>2019-09-14T21:26:21Z</time>
      </trkpt>
      <trkpt lat="44.21457" lon="2.07383">
        <ele>426</ele>
        <time>2019-09-14T21:26:25Z</time>
      </trkpt>
      <trkpt lat="44.21459" lon="2.07368">
        <ele>426</ele>
        <time>2019-09-14T21:26:27Z</time>
      </trkpt>
      <trkpt lat="44.21465" lon="2.07343">
        <ele>426</ele>
        <time>2019-09-14T21:26:32Z</time>
      </trkpt>
      <trkpt lat="44.21474" lon="2.07317">
        <ele>426</ele>
        <time>2019-09-14T21:26:37Z</time>
      </trkpt>
      <trkpt lat="44.21485" lon="2.07273">
        <ele>428</ele>
        <time>2019-09-14T21:26:44Z</time>
      </trkpt>
      <trkpt lat="44.21493" lon="2.07224">
        <ele>429</ele>
        <time>2019-09-14T21:26:53Z</time>
      </trkpt>
      <trkpt lat="44.21505" lon="2.07183">
        <ele>430</ele>
        <time>2019-09-14T21:27:00Z</time>
      </trkpt>
      <trkpt lat="44.21513" lon="2.07145">
        <ele>429</ele>
        <time>2019-09-14T21:27:07Z</time>
      </trkpt>
      <trkpt lat="44.21511" lon="2.07037">
        <ele>430</ele>
        <time>2019-09-14T21:27:25Z</time>
      </trkpt>
      <trkpt lat="44.21515" lon="2.06993">
        <ele>431</ele>
        <time>2019-09-14T21:27:32Z</time>
      </trkpt>
      <trkpt lat="44.21517" lon="2.06967">
        <ele>430</ele>
        <time>2019-09-14T21:27:37Z</time>
      </trkpt>
      <trkpt lat="44.21523" lon="2.06939">
        <ele>429</ele>
        <time>2019-09-14T21:27:42Z</time>
      </trkpt>
      <trkpt lat="44.21524" lon="2.06921">
        <ele>429</ele>
        <time>2019-09-14T21:27:45Z</time>
      </trkpt>
      <trkpt lat="44.21525" lon="2.06823">
        <ele>424</ele>
        <time>2019-09-14T21:28:01Z</time>
      </trkpt>
      <trkpt lat="44.21526" lon="2.06776">
        <ele>422</ele>
        <time>2019-09-14T21:28:09Z</time>
      </trkpt>
      <trkpt lat="44.21529" lon="2.06738">
        <ele>419</ele>
        <time>2019-09-14T21:28:15Z</time>
      </trkpt>
      <trkpt lat="44.21529" lon="2.06674">
        <ele>414</ele>
        <time>2019-09-14T21:28:26Z</time>
      </trkpt>
      <trkpt lat="44.21546" lon="2.06474">
        <ele>387</ele>
        <time>2019-09-14T21:29:00Z</time>
      </trkpt>
      <trkpt lat="44.21545" lon="2.06437">
        <ele>383</ele>
        <time>2019-09-14T21:29:06Z</time>
      </trkpt>
      <trkpt lat="44.21547" lon="2.06414">
        <ele>380</ele>
        <time>2019-09-14T21:29:10Z</time>
      </trkpt>
      <trkpt lat="44.2155" lon="2.06404">
        <ele>379</ele>
        <time>2019-09-14T21:29:12Z</time>
      </trkpt>
      <trkpt lat="44.2157" lon="2.06424">
        <ele>380</ele>
        <time>2019-09-14T21:29:17Z</time>
      </trkpt>
      <trkpt lat="44.21585" lon="2.06448">
        <ele>382</ele>
        <time>2019-09-14T21:29:23Z</time>
      </trkpt>
      <trkpt lat="44.21622" lon="2.06499">
        <ele>378</ele>
        <time>2019-09-14T21:29:35Z</time>
      </trkpt>
      <trkpt lat="44.2163" lon="2.06507">
        <ele>377</ele>
        <time>2019-09-14T21:29:37Z</time>
      </trkpt>
      <trkpt lat="44.21642" lon="2.06505">
        <ele>374</ele>
        <time>2019-09-14T21:29:40Z</time>
      </trkpt>
      <trkpt lat="44.21667" lon="2.06426">
        <ele>360</ele>
        <time>2019-09-14T21:29:54Z</time>
      </trkpt>
      <trkpt lat="44.21683" lon="2.0638">
        <ele>353</ele>
        <time>2019-09-14T21:30:03Z</time>
      </trkpt>
      <trkpt lat="44.21714" lon="2.06314">
        <ele>344</ele>
        <time>2019-09-14T21:30:16Z</time>
      </trkpt>
      <trkpt lat="44.21713" lon="2.06293">
        <ele>342</ele>
        <time>2019-09-14T21:30:20Z</time>
      </trkpt>
      <trkpt lat="44.21714" lon="2.06286">
        <ele>341</ele>
        <time>2019-09-14T21:30:21Z</time>
      </trkpt>
      <trkpt lat="44.21721" lon="2.06279">
        <ele>340</ele>
        <time>2019-09-14T21:30:23Z</time>
      </trkpt>
      <trkpt lat="44.21723" lon="2.0628">
        <ele>340</ele>
        <time>2019-09-14T21:30:23Z</time>
      </trkpt>
      <trkpt lat="44.21711" lon="2.06265">
        <ele>338</ele>
        <time>2019-09-14T21:30:27Z</time>
      </trkpt>
      <trkpt lat="44.21671" lon="2.06232">
        <ele>333</ele>
        <time>2019-09-14T21:30:38Z</time>
      </trkpt>
      <trkpt lat="44.21655" lon="2.06231">
        <ele>334</ele>
        <time>2019-09-14T21:30:42Z</time>
      </trkpt>
      <trkpt lat="44.2161" lon="2.06217">
        <ele>337</ele>
        <time>2019-09-14T21:30:52Z</time>
      </trkpt>
      <trkpt lat="44.21582" lon="2.06206">
        <ele>336</ele>
        <time>2019-09-14T21:30:59Z</time>
      </trkpt>
      <trkpt lat="44.21534" lon="2.06192">
        <ele>336</ele>
        <time>2019-09-14T21:31:11Z</time>
      </trkpt>
      <trkpt lat="44.21507" lon="2.06179">
        <ele>335</ele>
        <time>2019-09-14T21:31:17Z</time>
      </trkpt>
      <trkpt lat="44.21488" lon="2.06165">
        <ele>332</ele>
        <time>2019-09-14T21:31:22Z</time>
      </trkpt>
      <trkpt lat="44.21476" lon="2.06151">
        <ele>331</ele>
        <time>2019-09-14T21:31:26Z</time>
      </trkpt>
      <trkpt lat="44.21455" lon="2.06121">
        <ele>327</ele>
        <time>2019-09-14T21:31:33Z</time>
      </trkpt>
      <trkpt lat="44.21442" lon="2.06112">
        <ele>326</ele>
        <time>2019-09-14T21:31:36Z</time>
      </trkpt>
      <trkpt lat="44.21364" lon="2.06078">
        <ele>326</ele>
        <time>2019-09-14T21:31:56Z</time>
      </trkpt>
      <trkpt lat="44.21342" lon="2.06067">
        <ele>326</ele>
        <time>2019-09-14T21:32:01Z</time>
      </trkpt>
      <trkpt lat="44.21317" lon="2.06048">
        <ele>326</ele>
        <time>2019-09-14T21:32:08Z</time>
      </trkpt>
      <trkpt lat="44.21299" lon="2.06027">
        <ele>326</ele>
        <time>2019-09-14T21:32:13Z</time>
      </trkpt>
      <trkpt lat="44.21287" lon="2.06003">
        <ele>324</ele>
        <time>2019-09-14T21:32:18Z</time>
      </trkpt>
      <trkpt lat="44.21278" lon="2.05974">
        <ele>324</ele>
        <time>2019-09-14T21:32:23Z</time>
      </trkpt>
      <trkpt lat="44.21269" lon="2.05931">
        <ele>322</ele>
        <time>2019-09-14T21:32:31Z</time>
      </trkpt>
      <trkpt lat="44.21255" lon="2.05889">
        <ele>321</ele>
        <time>2019-09-14T21:32:39Z</time>
      </trkpt>
      <trkpt lat="44.21233" lon="2.05839">
        <ele>321</ele>
        <time>2019-09-14T21:32:48Z</time>
      </trkpt>
      <trkpt lat="44.21226" lon="2.05834">
        <ele>321</ele>
        <time>2019-09-14T21:32:50Z</time>
      </trkpt>
      <trkpt lat="44.21215" lon="2.05834">
        <ele>321</ele>
        <time>2019-09-14T21:32:53Z</time>
      </trkpt>
      <trkpt lat="44.21204" lon="2.05839">
        <ele>322</ele>
        <time>2019-09-14T21:32:55Z</time>
      </trkpt>
      <trkpt lat="44.21197" lon="2.05838">
        <ele>322</ele>
        <time>2019-09-14T21:32:57Z</time>
      </trkpt>
      <trkpt lat="44.21191" lon="2.05832">
        <ele>322</ele>
        <time>2019-09-14T21:32:59Z</time>
      </trkpt>
      <trkpt lat="44.21186" lon="2.05822">
        <ele>322</ele>
        <time>2019-09-14T21:33:01Z</time>
      </trkpt>
      <trkpt lat="44.21175" lon="2.05825">
        <ele>322</ele>
        <time>2019-09-14T21:33:04Z</time>
      </trkpt>
      <trkpt lat="44.21157" lon="2.0567">
        <ele>321</ele>
        <time>2019-09-14T21:33:30Z</time>
      </trkpt>
      <trkpt lat="44.21157" lon="2.05496">
        <ele>323</ele>
        <time>2019-09-14T21:33:59Z</time>
      </trkpt>
      <trkpt lat="44.21157" lon="2.05496">
        <ele>323</ele>
        <time>2019-09-14T21:33:59Z</time>
      </trkpt>
      <trkpt lat="44.21121" lon="2.05407">
        <ele>321</ele>
        <time>2019-09-14T21:34:16Z</time>
      </trkpt>
      <trkpt lat="44.21121" lon="2.05407">
        <ele>321</ele>
        <time>2019-09-14T21:34:16Z</time>
      </trkpt>
      <trkpt lat="44.2107" lon="2.05397">
        <ele>322</ele>
        <time>2019-09-14T21:34:28Z</time>
      </trkpt>
      <trkpt lat="44.2107" lon="2.05397">
        <ele>322</ele>
        <time>2019-09-14T21:34:28Z</time>
      </trkpt>
      <trkpt lat="44.20976" lon="2.05346">
        <ele>321</ele>
        <time>2019-09-14T21:34:52Z</time>
      </trkpt>
      <trkpt lat="44.20976" lon="2.05346">
        <ele>321</ele>
        <time>2019-09-14T21:34:52Z</time>
      </trkpt>
      <trkpt lat="44.20925" lon="2.05193">
        <ele>322</ele>
        <time>2019-09-14T21:35:20Z</time>
      </trkpt>
      <trkpt lat="44.20925" lon="2.05193">
        <ele>322</ele>
        <time>2019-09-14T21:35:20Z</time>
      </trkpt>
      <trkpt lat="44.20839" lon="2.0507">
        <ele>319</ele>
        <time>2019-09-14T21:35:49Z</time>
      </trkpt>
      <trkpt lat="44.20839" lon="2.0507">
        <ele>319</ele>
        <time>2019-09-14T21:35:49Z</time>
      </trkpt>
      <trkpt lat="44.20848" lon="2.04948">
        <ele>318</ele>
        <time>2019-09-14T21:36:09Z</time>
      </trkpt>
      <trkpt lat="44.20848" lon="2.04948">
        <ele>318</ele>
        <time>2019-09-14T21:36:09Z</time>
      </trkpt>
      <trkpt lat="44.20914" lon="2.04886">
        <ele>319</ele>
        <time>2019-09-14T21:36:28Z</time>
      </trkpt>
      <trkpt lat="44.20914" lon="2.04886">
        <ele>319</ele>
        <time>2019-09-14T21:36:28Z</time>
      </trkpt>
      <trkpt lat="44.20899" lon="2.0484">
        <ele>321</ele>
        <time>2019-09-14T21:36:36Z</time>
      </trkpt>
      <trkpt lat="44.20899" lon="2.0484">
        <ele>321</ele>
        <time>2019-09-14T21:36:36Z</time>
      </trkpt>
      <trkpt lat="44.20801" lon="2.04578">
        <ele>320</ele>
        <time>2019-09-14T21:37:26Z</time>
      </trkpt>
      <trkpt lat="44.20801" lon="2.04578">
        <ele>320</ele>
        <time>2019-09-14T21:37:26Z</time>
      </trkpt>
      <trkpt lat="44.20722" lon="2.04652">
        <ele>323</ele>
        <time>2019-09-14T21:37:48Z</time>
      </trkpt>
      <trkpt lat="44.2072" lon="2.04649">
        <ele>324</ele>
        <time>2019-09-14T21:37:49Z</time>
      </trkpt>
      <trkpt lat="44.20709" lon="2.04656">
        <ele>325</ele>
        <time>2019-09-14T21:37:51Z</time>
      </trkpt>
      <trkpt lat="44.20703" lon="2.04652">
        <ele>327</ele>
        <time>2019-09-14T21:37:53Z</time>
      </trkpt>
      <trkpt lat="44.20695" lon="2.04622">
        <ele>331</ele>
        <time>2019-09-14T21:37:58Z</time>
      </trkpt>
      <trkpt lat="44.20695" lon="2.04607">
        <ele>332</ele>
        <time>2019-09-14T21:38:01Z</time>
      </trkpt>
      <trkpt lat="44.207" lon="2.04562">
        <ele>335</ele>
        <time>2019-09-14T21:38:08Z</time>
      </trkpt>
      <trkpt lat="44.20696" lon="2.04483">
        <ele>339</ele>
        <time>2019-09-14T21:38:22Z</time>
      </trkpt>
      <trkpt lat="44.20692" lon="2.04478">
        <ele>339</ele>
        <time>2019-09-14T21:38:23Z</time>
      </trkpt>
      <trkpt lat="44.20682" lon="2.04481">
        <ele>341</ele>
        <time>2019-09-14T21:38:25Z</time>
      </trkpt>
      <trkpt lat="44.20668" lon="2.04479">
        <ele>343</ele>
        <time>2019-09-14T21:38:29Z</time>
      </trkpt>
      <trkpt lat="44.20655" lon="2.04474">
        <ele>343</ele>
        <time>2019-09-14T21:38:32Z</time>
      </trkpt>
      <trkpt lat="44.2065" lon="2.04486">
        <ele>344</ele>
        <time>2019-09-14T21:38:34Z</time>
      </trkpt>
      <trkpt lat="44.20632" lon="2.04499">
        <ele>345</ele>
        <time>2019-09-14T21:38:39Z</time>
      </trkpt>
      <trkpt lat="44.20614" lon="2.04525">
        <ele>345</ele>
        <time>2019-09-14T21:38:45Z</time>
      </trkpt>
      <trkpt lat="44.20587" lon="2.04594">
        <ele>348</ele>
        <time>2019-09-14T21:38:58Z</time>
      </trkpt>
      <trkpt lat="44.2057" lon="2.04632">
        <ele>349</ele>
        <time>2019-09-14T21:39:06Z</time>
      </trkpt>
      <trkpt lat="44.20543" lon="2.04684">
        <ele>350</ele>
        <time>2019-09-14T21:39:16Z</time>
      </trkpt>
      <trkpt lat="44.20534" lon="2.04695">
        <ele>351</ele>
        <time>2019-09-14T21:39:19Z</time>
      </trkpt>
      <trkpt lat="44.20413" lon="2.04725">
        <ele>354</ele>
        <time>2019-09-14T21:39:48Z</time>
      </trkpt>
      <trkpt lat="44.20386" lon="2.04729">
        <ele>355</ele>
        <time>2019-09-14T21:39:54Z</time>
      </trkpt>
      <trkpt lat="44.20366" lon="2.04729">
        <ele>356</ele>
        <time>2019-09-14T21:39:59Z</time>
      </trkpt>
      <trkpt lat="44.20337" lon="2.04724">
        <ele>356</ele>
        <time>2019-09-14T21:40:06Z</time>
      </trkpt>
      <trkpt lat="44.20327" lon="2.04727">
        <ele>356</ele>
        <time>2019-09-14T21:40:08Z</time>
      </trkpt>
      <trkpt lat="44.20317" lon="2.04735">
        <ele>356</ele>
        <time>2019-09-14T21:40:11Z</time>
      </trkpt>
      <trkpt lat="44.20301" lon="2.04761">
        <ele>357</ele>
        <time>2019-09-14T21:40:16Z</time>
      </trkpt>
      <trkpt lat="44.20269" lon="2.04821">
        <ele>354</ele>
        <time>2019-09-14T21:40:29Z</time>
      </trkpt>
      <trkpt lat="44.20267" lon="2.04816">
        <ele>354</ele>
        <time>2019-09-14T21:40:30Z</time>
      </trkpt>
      <trkpt lat="44.20298" lon="2.04867">
        <ele>355</ele>
        <time>2019-09-14T21:40:41Z</time>
      </trkpt>
      <trkpt lat="44.20322" lon="2.04914">
        <ele>357</ele>
        <time>2019-09-14T21:40:51Z</time>
      </trkpt>
      <trkpt lat="44.20335" lon="2.04958">
        <ele>357</ele>
        <time>2019-09-14T21:40:59Z</time>
      </trkpt>
      <trkpt lat="44.20342" lon="2.05061">
        <ele>355</ele>
        <time>2019-09-14T21:41:16Z</time>
      </trkpt>
      <trkpt lat="44.20344" lon="2.05124">
        <ele>353</ele>
        <time>2019-09-14T21:41:27Z</time>
      </trkpt>
      <trkpt lat="44.20342" lon="2.0516">
        <ele>353</ele>
        <time>2019-09-14T21:41:33Z</time>
      </trkpt>
      <trkpt lat="44.2033" lon="2.05214">
        <ele>353</ele>
        <time>2019-09-14T21:41:42Z</time>
      </trkpt>
      <trkpt lat="44.20297" lon="2.05333">
        <ele>351</ele>
        <time>2019-09-14T21:42:04Z</time>
      </trkpt>
      <trkpt lat="44.20276" lon="2.05419">
        <ele>348</ele>
        <time>2019-09-14T21:42:19Z</time>
      </trkpt>
      <trkpt lat="44.20263" lon="2.05507">
        <ele>347</ele>
        <time>2019-09-14T21:42:34Z</time>
      </trkpt>
      <trkpt lat="44.2026" lon="2.05608">
        <ele>347</ele>
        <time>2019-09-14T21:42:51Z</time>
      </trkpt>
      <trkpt lat="44.20265" lon="2.05874">
        <ele>347</ele>
        <time>2019-09-14T21:43:35Z</time>
      </trkpt>
      <trkpt lat="44.20254" lon="2.05936">
        <ele>350</ele>
        <time>2019-09-14T21:43:46Z</time>
      </trkpt>
      <trkpt lat="44.20253" lon="2.05955">
        <ele>350</ele>
        <time>2019-09-14T21:43:49Z</time>
      </trkpt>
      <trkpt lat="44.2023" lon="2.05993">
        <ele>352</ele>
        <time>2019-09-14T21:43:57Z</time>
      </trkpt>
      <trkpt lat="44.20218" lon="2.06007">
        <ele>353</ele>
        <time>2019-09-14T21:44:01Z</time>
      </trkpt>
      <trkpt lat="44.20203" lon="2.06014">
        <ele>354</ele>
        <time>2019-09-14T21:44:05Z</time>
      </trkpt>
      <trkpt lat="44.2017" lon="2.06025">
        <ele>355</ele>
        <time>2019-09-14T21:44:13Z</time>
      </trkpt>
      <trkpt lat="44.20149" lon="2.06026">
        <ele>358</ele>
        <time>2019-09-14T21:44:18Z</time>
      </trkpt>
      <trkpt lat="44.20128" lon="2.06023">
        <ele>360</ele>
        <time>2019-09-14T21:44:23Z</time>
      </trkpt>
      <trkpt lat="44.20053" lon="2.05995">
        <ele>362</ele>
        <time>2019-09-14T21:44:41Z</time>
      </trkpt>
      <trkpt lat="44.20045" lon="2.05997">
        <ele>362</ele>
        <time>2019-09-14T21:44:43Z</time>
      </trkpt>
      <trkpt lat="44.20032" lon="2.06002">
        <ele>362</ele>
        <time>2019-09-14T21:44:46Z</time>
      </trkpt>
      <trkpt lat="44.20003" lon="2.06032">
        <ele>362</ele>
        <time>2019-09-14T21:44:54Z</time>
      </trkpt>
      <trkpt lat="44.19998" lon="2.06044">
        <ele>362</ele>
        <time>2019-09-14T21:44:56Z</time>
      </trkpt>
      <trkpt lat="44.19975" lon="2.06109">
        <ele>360</ele>
        <time>2019-09-14T21:45:09Z</time>
      </trkpt>
      <trkpt lat="44.19968" lon="2.06123">
        <ele>360</ele>
        <time>2019-09-14T21:45:11Z</time>
      </trkpt>
      <trkpt lat="44.19958" lon="2.0613">
        <ele>359</ele>
        <time>2019-09-14T21:45:14Z</time>
      </trkpt>
      <trkpt lat="44.19925" lon="2.06147">
        <ele>355</ele>
        <time>2019-09-14T21:45:22Z</time>
      </trkpt>
      <trkpt lat="44.19916" lon="2.06154">
        <ele>354</ele>
        <time>2019-09-14T21:45:25Z</time>
      </trkpt>
      <trkpt lat="44.19907" lon="2.06166">
        <ele>354</ele>
        <time>2019-09-14T21:45:28Z</time>
      </trkpt>
      <trkpt lat="44.19891" lon="2.06195">
        <ele>358</ele>
        <time>2019-09-14T21:45:34Z</time>
      </trkpt>
      <trkpt lat="44.19879" lon="2.06209">
        <ele>360</ele>
        <time>2019-09-14T21:45:37Z</time>
      </trkpt>
      <trkpt lat="44.19867" lon="2.06216">
        <ele>360</ele>
        <time>2019-09-14T21:45:40Z</time>
      </trkpt>
      <trkpt lat="44.19853" lon="2.06216">
        <ele>359</ele>
        <time>2019-09-14T21:45:44Z</time>
      </trkpt>
      <trkpt lat="44.19797" lon="2.0621">
        <ele>359</ele>
        <time>2019-09-14T21:45:57Z</time>
      </trkpt>
      <trkpt lat="44.19706" lon="2.0618">
        <ele>359</ele>
        <time>2019-09-14T21:46:19Z</time>
      </trkpt>
      <trkpt lat="44.1961" lon="2.06176">
        <ele>363</ele>
        <time>2019-09-14T21:46:41Z</time>
      </trkpt>
      <trkpt lat="44.19554" lon="2.06178">
        <ele>361</ele>
        <time>2019-09-14T21:46:54Z</time>
      </trkpt>
      <trkpt lat="44.19518" lon="2.06184">
        <ele>360</ele>
        <time>2019-09-14T21:47:03Z</time>
      </trkpt>
      <trkpt lat="44.19514" lon="2.0613">
        <ele>355</ele>
        <time>2019-09-14T21:47:12Z</time>
      </trkpt>
      <trkpt lat="44.19488" lon="2.06113">
        <ele>350</ele>
        <time>2019-09-14T21:47:18Z</time>
      </trkpt>
      <trkpt lat="44.19488" lon="2.06113">
        <ele>350</ele>
        <time>2019-09-14T21:47:18Z</time>
      </trkpt>
      <trkpt lat="44.19447" lon="2.0598">
        <ele>335</ele>
        <time>2019-09-14T21:47:43Z</time>
      </trkpt>
      <trkpt lat="44.19447" lon="2.0598">
        <ele>335</ele>
        <time>2019-09-14T21:47:43Z</time>
      </trkpt>
      <trkpt lat="44.19443" lon="2.05926">
        <ele>334</ele>
        <time>2019-09-14T21:47:52Z</time>
      </trkpt>
      <trkpt lat="44.19443" lon="2.05926">
        <ele>334</ele>
        <time>2019-09-14T21:47:52Z</time>
      </trkpt>
      <trkpt lat="44.19393" lon="2.05841">
        <ele>327</ele>
        <time>2019-09-14T21:48:10Z</time>
      </trkpt>
      <trkpt lat="44.19393" lon="2.05841">
        <ele>327</ele>
        <time>2019-09-14T21:48:10Z</time>
      </trkpt>
      <trkpt lat="44.19403" lon="2.05759">
        <ele>321</ele>
        <time>2019-09-14T21:48:24Z</time>
      </trkpt>
      <trkpt lat="44.19403" lon="2.05759">
        <ele>321</ele>
        <time>2019-09-14T21:48:24Z</time>
      </trkpt>
      <trkpt lat="44.1942" lon="2.05642">
        <ele>293</ele>
        <time>2019-09-14T21:48:44Z</time>
      </trkpt>
      <trkpt lat="44.1942" lon="2.05642">
        <ele>293</ele>
        <time>2019-09-14T21:48:44Z</time>
      </trkpt>
      <trkpt lat="44.19366" lon="2.05575">
        <ele>269</ele>
        <time>2019-09-14T21:49:01Z</time>
      </trkpt>
      <trkpt lat="44.19366" lon="2.05575">
        <ele>269</ele>
        <time>2019-09-14T21:49:01Z</time>
      </trkpt>
      <trkpt lat="44.19286" lon="2.05611">
        <ele>264</ele>
        <time>2019-09-14T21:49:21Z</time>
      </trkpt>
      <trkpt lat="44.19286" lon="2.05611">
        <ele>264</ele>
        <time>2019-09-14T21:49:21Z</time>
      </trkpt>
      <trkpt lat="44.19205" lon="2.05608">
        <ele>241</ele>
        <time>2019-09-14T21:49:40Z</time>
      </trkpt>
      <trkpt lat="44.19205" lon="2.05608">
        <ele>241</ele>
        <time>2019-09-14T21:49:40Z</time>
      </trkpt>
      <trkpt lat="44.19145" lon="2.05601">
        <ele>224</ele>
        <time>2019-09-14T21:49:54Z</time>
      </trkpt>
      <trkpt lat="44.19145" lon="2.05601">
        <ele>224</ele>
        <time>2019-09-14T21:49:54Z</time>
      </trkpt>
      <trkpt lat="44.19048" lon="2.05596">
        <ele>199</ele>
        <time>2019-09-14T21:50:16Z</time>
      </trkpt>
      <trkpt lat="44.19048" lon="2.05596">
        <ele>199</ele>
        <time>2019-09-14T21:50:16Z</time>
      </trkpt>
      <trkpt lat="44.18997" lon="2.05578">
        <ele>184</ele>
        <time>2019-09-14T21:50:29Z</time>
      </trkpt>
      <trkpt lat="44.18997" lon="2.05578">
        <ele>184</ele>
        <time>2019-09-14T21:50:29Z</time>
      </trkpt>
      <trkpt lat="44.19012" lon="2.05769">
        <ele>189</ele>
        <time>2019-09-14T21:51:01Z</time>
      </trkpt>
      <trkpt lat="44.19015" lon="2.05768">
        <ele>191</ele>
        <time>2019-09-14T21:51:01Z</time>
      </trkpt>
      <trkpt lat="44.19016" lon="2.05791">
        <ele>191</ele>
        <time>2019-09-14T21:51:05Z</time>
      </trkpt>
      <trkpt lat="44.19007" lon="2.05902">
        <ele>184</ele>
        <time>2019-09-14T21:51:24Z</time>
      </trkpt>
      <trkpt lat="44.18981" lon="2.06007">
        <ele>194</ele>
        <time>2019-09-14T21:51:43Z</time>
      </trkpt>
      <trkpt lat="44.18947" lon="2.0608">
        <ele>199</ele>
        <time>2019-09-14T21:51:57Z</time>
      </trkpt>
      <trkpt lat="44.18943" lon="2.06102">
        <ele>199</ele>
        <time>2019-09-14T21:52:01Z</time>
      </trkpt>
      <trkpt lat="44.18949" lon="2.06105">
        <ele>200</ele>
        <time>2019-09-14T21:52:02Z</time>
      </trkpt>
      <trkpt lat="44.18924" lon="2.06229">
        <ele>192</ele>
        <time>2019-09-14T21:52:24Z</time>
      </trkpt>
      <trkpt lat="44.18927" lon="2.06226">
        <ele>193</ele>
        <time>2019-09-14T21:52:25Z</time>
      </trkpt>
      <trkpt lat="44.18962" lon="2.06374">
        <ele>201</ele>
        <time>2019-09-14T21:52:51Z</time>
      </trkpt>
      <trkpt lat="44.18995" lon="2.06484">
        <ele>197</ele>
        <time>2019-09-14T21:53:11Z</time>
      </trkpt>
      <trkpt lat="44.1903" lon="2.0664">
        <ele>208</ele>
        <time>2019-09-14T21:53:38Z</time>
      </trkpt>
      <trkpt lat="44.19025" lon="2.06731">
        <ele>203</ele>
        <time>2019-09-14T21:53:54Z</time>
      </trkpt>
      <trkpt lat="44.19009" lon="2.06846">
        <ele>199</ele>
        <time>2019-09-14T21:54:13Z</time>
      </trkpt>
      <trkpt lat="44.18962" lon="2.06936">
        <ele>201</ele>
        <time>2019-09-14T21:54:32Z</time>
      </trkpt>
      <trkpt lat="44.18919" lon="2.06984">
        <ele>194</ele>
        <time>2019-09-14T21:54:45Z</time>
      </trkpt>
      <trkpt lat="44.18842" lon="2.07014">
        <ele>191</ele>
        <time>2019-09-14T21:55:03Z</time>
      </trkpt>
      <trkpt lat="44.18762" lon="2.06977">
        <ele>191</ele>
        <time>2019-09-14T21:55:23Z</time>
      </trkpt>
      <trkpt lat="44.18652" lon="2.06904">
        <ele>186</ele>
        <time>2019-09-14T21:55:52Z</time>
      </trkpt>
      <trkpt lat="44.18595" lon="2.06904">
        <ele>188</ele>
        <time>2019-09-14T21:56:05Z</time>
      </trkpt>
      <trkpt lat="44.18541" lon="2.06924">
        <ele>188</ele>
        <time>2019-09-14T21:56:18Z</time>
      </trkpt>
      <trkpt lat="44.18484" lon="2.06958">
        <ele>184</ele>
        <time>2019-09-14T21:56:32Z</time>
      </trkpt>
      <trkpt lat="44.18432" lon="2.0702">
        <ele>178</ele>
        <time>2019-09-14T21:56:48Z</time>
      </trkpt>
      <trkpt lat="44.18401" lon="2.07087">
        <ele>178</ele>
        <time>2019-09-14T21:57:02Z</time>
      </trkpt>
      <trkpt lat="44.18347" lon="2.07215">
        <ele>182</ele>
        <time>2019-09-14T21:57:27Z</time>
      </trkpt>
      <trkpt lat="44.18321" lon="2.07293">
        <ele>185</ele>
        <time>2019-09-14T21:57:41Z</time>
      </trkpt>
      <trkpt lat="44.18293" lon="2.07383">
        <ele>193</ele>
        <time>2019-09-14T21:57:57Z</time>
      </trkpt>
      <trkpt lat="44.18264" lon="2.07443">
        <ele>189</ele>
        <time>2019-09-14T21:58:10Z</time>
      </trkpt>
      <trkpt lat="44.18188" lon="2.07574">
        <ele>189</ele>
        <time>2019-09-14T21:58:38Z</time>
      </trkpt>
      <trkpt lat="44.18119" lon="2.07666">
        <ele>185</ele>
        <time>2019-09-14T21:59:00Z</time>
      </trkpt>
      <trkpt lat="44.18107" lon="2.07685">
        <ele>185</ele>
        <time>2019-09-14T21:59:04Z</time>
      </trkpt>
      <trkpt lat="44.18103" lon="2.07698">
        <ele>185</ele>
        <time>2019-09-14T21:59:07Z</time>
      </trkpt>
      <trkpt lat="44.18087" lon="2.07714">
        <ele>185</ele>
        <time>2019-09-14T21:59:11Z</time>
      </trkpt>
      <trkpt lat="44.18077" lon="2.07727">
        <ele>186</ele>
        <time>2019-09-14T21:59:14Z</time>
      </trkpt>
      <trkpt lat="44.1807" lon="2.07743">
        <ele>187</ele>
        <time>2019-09-14T21:59:18Z</time>
      </trkpt>
      <trkpt lat="44.18054" lon="2.07789">
        <ele>188</ele>
        <time>2019-09-14T21:59:26Z</time>
      </trkpt>
      <trkpt lat="44.18033" lon="2.07879">
        <ele>189</ele>
        <time>2019-09-14T21:59:42Z</time>
      </trkpt>
      <trkpt lat="44.18033" lon="2.07895">
        <ele>190</ele>
        <time>2019-09-14T21:59:45Z</time>
      </trkpt>
      <trkpt lat="44.18028" lon="2.07921">
        <ele>191</ele>
        <time>2019-09-14T21:59:49Z</time>
      </trkpt>
      <trkpt lat="44.18027" lon="2.07963">
        <ele>189</ele>
        <time>2019-09-14T21:59:56Z</time>
      </trkpt>
      <trkpt lat="44.18022" lon="2.08038">
        <ele>187</ele>
        <time>2019-09-14T22:00:09Z</time>
      </trkpt>
      <trkpt lat="44.18023" lon="2.08076">
        <ele>187</ele>
        <time>2019-09-14T22:00:15Z</time>
      </trkpt>
      <trkpt lat="44.18026" lon="2.08089">
        <ele>187</ele>
        <time>2019-09-14T22:00:18Z</time>
      </trkpt>
      <trkpt lat="44.18048" lon="2.08132">
        <ele>189</ele>
        <time>2019-09-14T22:00:26Z</time>
      </trkpt>
      <trkpt lat="44.1809" lon="2.08198">
        <ele>187</ele>
        <time>2019-09-14T22:00:41Z</time>
      </trkpt>
      <trkpt lat="44.18104" lon="2.08214">
        <ele>188</ele>
        <time>2019-09-14T22:00:45Z</time>
      </trkpt>
      <trkpt lat="44.18124" lon="2.08227">
        <ele>189</ele>
        <time>2019-09-14T22:00:51Z</time>
      </trkpt>
      <trkpt lat="44.18149" lon="2.08235">
        <ele>189</ele>
        <time>2019-09-14T22:00:57Z</time>
      </trkpt>
      <trkpt lat="44.18156" lon="2.08235">
        <ele>189</ele>
        <time>2019-09-14T22:00:58Z</time>
      </trkpt>
      <trkpt lat="44.18161" lon="2.08231">
        <ele>189</ele>
        <time>2019-09-14T22:00:59Z</time>
      </trkpt>
      <trkpt lat="44.18171" lon="2.08252">
        <ele>188</ele>
        <time>2019-09-14T22:01:04Z</time>
      </trkpt>
      <trkpt lat="44.18214" lon="2.08241">
        <ele>194</ele>
        <time>2019-09-14T22:01:14Z</time>
      </trkpt>
      <trkpt lat="44.18229" lon="2.08242">
        <ele>195</ele>
        <time>2019-09-14T22:01:17Z</time>
      </trkpt>
      <trkpt lat="44.1824" lon="2.08246">
        <ele>195</ele>
        <time>2019-09-14T22:01:20Z</time>
      </trkpt>
      <trkpt lat="44.18318" lon="2.08299">
        <ele>196</ele>
        <time>2019-09-14T22:01:40Z</time>
      </trkpt>
      <trkpt lat="44.18339" lon="2.08316">
        <ele>195</ele>
        <time>2019-09-14T22:01:46Z</time>
      </trkpt>
      <trkpt lat="44.18371" lon="2.08343">
        <ele>193</ele>
        <time>2019-09-14T22:01:55Z</time>
      </trkpt>
      <trkpt lat="44.18415" lon="2.08386">
        <ele>191</ele>
        <time>2019-09-14T22:02:07Z</time>
      </trkpt>
      <trkpt lat="44.18463" lon="2.08442">
        <ele>189</ele>
        <time>2019-09-14T22:02:22Z</time>
      </trkpt>
      <trkpt lat="44.1848" lon="2.08454">
        <ele>189</ele>
        <time>2019-09-14T22:02:26Z</time>
      </trkpt>
      <trkpt lat="44.18498" lon="2.0846">
        <ele>189</ele>
        <time>2019-09-14T22:02:31Z</time>
      </trkpt>
      <trkpt lat="44.18517" lon="2.0846">
        <ele>190</ele>
        <time>2019-09-14T22:02:35Z</time>
      </trkpt>
      <trkpt lat="44.18532" lon="2.08456">
        <ele>192</ele>
        <time>2019-09-14T22:02:39Z</time>
      </trkpt>
      <trkpt lat="44.18541" lon="2.08431">
        <ele>194</ele>
        <time>2019-09-14T22:02:43Z</time>
      </trkpt>
      <trkpt lat="44.18552" lon="2.08421">
        <ele>196</ele>
        <time>2019-09-14T22:02:46Z</time>
      </trkpt>
      <trkpt lat="44.18571" lon="2.08413">
        <ele>198</ele>
        <time>2019-09-14T22:02:51Z</time>
      </trkpt>
      <trkpt lat="44.18595" lon="2.0841">
        <ele>200</ele>
        <time>2019-09-14T22:02:57Z</time>
      </trkpt>
      <trkpt lat="44.18617" lon="2.08412">
        <ele>202</ele>
        <time>2019-09-14T22:03:02Z</time>
      </trkpt>
      <trkpt lat="44.18641" lon="2.08419">
        <ele>204</ele>
        <time>2019-09-14T22:03:08Z</time>
      </trkpt>
      <trkpt lat="44.18653" lon="2.08414">
        <ele>206</ele>
        <time>2019-09-14T22:03:11Z</time>
      </trkpt>
      <trkpt lat="44.1867" lon="2.084">
        <ele>208</ele>
        <time>2019-09-14T22:03:15Z</time>
      </trkpt>
      <trkpt lat="44.18682" lon="2.0838">
        <ele>209</ele>
        <time>2019-09-14T22:03:19Z</time>
      </trkpt>
      <trkpt lat="44.18686" lon="2.0837">
        <ele>210</ele>
        <time>2019-09-14T22:03:21Z</time>
      </trkpt>
      <trkpt lat="44.1869" lon="2.08355">
        <ele>210</ele>
        <time>2019-09-14T22:03:24Z</time>
      </trkpt>
      <trkpt lat="44.18694" lon="2.08299">
        <ele>212</ele>
        <time>2019-09-14T22:03:34Z</time>
      </trkpt>
      <trkpt lat="44.18709" lon="2.08255">
        <ele>215</ele>
        <time>2019-09-14T22:03:42Z</time>
      </trkpt>
      <trkpt lat="44.18744" lon="2.08171">
        <ele>218</ele>
        <time>2019-09-14T22:03:58Z</time>
      </trkpt>
      <trkpt lat="44.18802" lon="2.08071">
        <ele>224</ele>
        <time>2019-09-14T22:04:19Z</time>
      </trkpt>
      <trkpt lat="44.18839" lon="2.0803">
        <ele>232</ele>
        <time>2019-09-14T22:04:31Z</time>
      </trkpt>
      <trkpt lat="44.18864" lon="2.08008">
        <ele>239</ele>
        <time>2019-09-14T22:04:37Z</time>
      </trkpt>
      <trkpt lat="44.18902" lon="2.07965">
        <ele>250</ele>
        <time>2019-09-14T22:04:49Z</time>
      </trkpt>
      <trkpt lat="44.18931" lon="2.07922">
        <ele>262</ele>
        <time>2019-09-14T22:04:59Z</time>
      </trkpt>
      <trkpt lat="44.18932" lon="2.07903">
        <ele>264</ele>
        <time>2019-09-14T22:05:02Z</time>
      </trkpt>
      <trkpt lat="44.18935" lon="2.07873">
        <ele>267</ele>
        <time>2019-09-14T22:05:07Z</time>
      </trkpt>
      <trkpt lat="44.18935" lon="2.07843">
        <ele>269</ele>
        <time>2019-09-14T22:05:12Z</time>
      </trkpt>
      <trkpt lat="44.18932" lon="2.07789">
        <ele>275</ele>
        <time>2019-09-14T22:05:21Z</time>
      </trkpt>
      <trkpt lat="44.18933" lon="2.07747">
        <ele>282</ele>
        <time>2019-09-14T22:05:28Z</time>
      </trkpt>
      <trkpt lat="44.18928" lon="2.0773">
        <ele>284</ele>
        <time>2019-09-14T22:05:31Z</time>
      </trkpt>
      <trkpt lat="44.18898" lon="2.07679">
        <ele>290</ele>
        <time>2019-09-14T22:05:42Z</time>
      </trkpt>
      <trkpt lat="44.18889" lon="2.07657">
        <ele>293</ele>
        <time>2019-09-14T22:05:46Z</time>
      </trkpt>
      <trkpt lat="44.18873" lon="2.07644">
        <ele>291</ele>
        <time>2019-09-14T22:05:51Z</time>
      </trkpt>
      <trkpt lat="44.18851" lon="2.07633">
        <ele>289</ele>
        <time>2019-09-14T22:05:56Z</time>
      </trkpt>
      <trkpt lat="44.18869" lon="2.07608">
        <ele>297</ele>
        <time>2019-09-14T22:06:02Z</time>
      </trkpt>
      <trkpt lat="44.18886" lon="2.0759">
        <ele>303</ele>
        <time>2019-09-14T22:06:07Z</time>
      </trkpt>
      <trkpt lat="44.18884" lon="2.07584">
        <ele>303</ele>
        <time>2019-09-14T22:06:08Z</time>
      </trkpt>
      <trkpt lat="44.18871" lon="2.07567">
        <ele>302</ele>
        <time>2019-09-14T22:06:12Z</time>
      </trkpt>
      <trkpt lat="44.18887" lon="2.07537">
        <ele>308</ele>
        <time>2019-09-14T22:06:19Z</time>
      </trkpt>
      <trkpt lat="44.18888" lon="2.07527">
        <ele>309</ele>
        <time>2019-09-14T22:06:20Z</time>
      </trkpt>
      <trkpt lat="44.18888" lon="2.07514">
        <ele>310</ele>
        <time>2019-09-14T22:06:23Z</time>
      </trkpt>
      <trkpt lat="44.18864" lon="2.07396">
        <ele>307</ele>
        <time>2019-09-14T22:06:43Z</time>
      </trkpt>
      <trkpt lat="44.18864" lon="2.07377">
        <ele>307</ele>
        <time>2019-09-14T22:06:46Z</time>
      </trkpt>
      <trkpt lat="44.18868" lon="2.07365">
        <ele>308</ele>
        <time>2019-09-14T22:06:49Z</time>
      </trkpt>
      <trkpt lat="44.18874" lon="2.07354">
        <ele>309</ele>
        <time>2019-09-14T22:06:51Z</time>
      </trkpt>
      <trkpt lat="44.18908" lon="2.07329">
        <ele>316</ele>
        <time>2019-09-14T22:07:00Z</time>
      </trkpt>
      <trkpt lat="44.18972" lon="2.07294">
        <ele>326</ele>
        <time>2019-09-14T22:07:16Z</time>
      </trkpt>
      <trkpt lat="44.18997" lon="2.07273">
        <ele>328</ele>
        <time>2019-09-14T22:07:23Z</time>
      </trkpt>
      <trkpt lat="44.19031" lon="2.07238">
        <ele>328</ele>
        <time>2019-09-14T22:07:33Z</time>
      </trkpt>
      <trkpt lat="44.19051" lon="2.07212">
        <ele>327</ele>
        <time>2019-09-14T22:07:39Z</time>
      </trkpt>
      <trkpt lat="44.19062" lon="2.07205">
        <ele>328</ele>
        <time>2019-09-14T22:07:42Z</time>
      </trkpt>
      <trkpt lat="44.19062" lon="2.07212">
        <ele>330</ele>
        <time>2019-09-14T22:07:43Z</time>
      </trkpt>
      <trkpt lat="44.19058" lon="2.07223">
        <ele>333</ele>
        <time>2019-09-14T22:07:45Z</time>
      </trkpt>
      <trkpt lat="44.19051" lon="2.0723">
        <ele>332</ele>
        <time>2019-09-14T22:07:47Z</time>
      </trkpt>
      <trkpt lat="44.19027" lon="2.07278">
        <ele>338</ele>
        <time>2019-09-14T22:07:57Z</time>
      </trkpt>
      <trkpt lat="44.19" lon="2.07316">
        <ele>341</ele>
        <time>2019-09-14T22:08:06Z</time>
      </trkpt>
      <trkpt lat="44.18973" lon="2.07359">
        <ele>340</ele>
        <time>2019-09-14T22:08:15Z</time>
      </trkpt>
      <trkpt lat="44.18968" lon="2.07376">
        <ele>340</ele>
        <time>2019-09-14T22:08:18Z</time>
      </trkpt>
      <trkpt lat="44.18969" lon="2.07393">
        <ele>342</ele>
        <time>2019-09-14T22:08:21Z</time>
      </trkpt>
      <trkpt lat="44.18977" lon="2.07428">
        <ele>346</ele>
        <time>2019-09-14T22:08:27Z</time>
      </trkpt>
      <trkpt lat="44.18985" lon="2.0745">
        <ele>347</ele>
        <time>2019-09-14T22:08:32Z</time>
      </trkpt>
      <trkpt lat="44.18992" lon="2.07464">
        <ele>348</ele>
        <time>2019-09-14T22:08:34Z</time>
      </trkpt>
      <trkpt lat="44.19" lon="2.07474">
        <ele>350</ele>
        <time>2019-09-14T22:08:37Z</time>
      </trkpt>
      <trkpt lat="44.19016" lon="2.07486">
        <ele>354</ele>
        <time>2019-09-14T22:08:41Z</time>
      </trkpt>
      <trkpt lat="44.19027" lon="2.075">
        <ele>356</ele>
        <time>2019-09-14T22:08:45Z</time>
      </trkpt>
      <trkpt lat="44.19039" lon="2.07518">
        <ele>357</ele>
        <time>2019-09-14T22:08:49Z</time>
      </trkpt>
      <trkpt lat="44.19054" lon="2.07554">
        <ele>357</ele>
        <time>2019-09-14T22:08:56Z</time>
      </trkpt>
      <trkpt lat="44.19065" lon="2.07571">
        <ele>358</ele>
        <time>2019-09-14T22:09:00Z</time>
      </trkpt>
      <trkpt lat="44.19081" lon="2.0759">
        <ele>360</ele>
        <time>2019-09-14T22:09:04Z</time>
      </trkpt>
      <trkpt lat="44.19091" lon="2.07606">
        <ele>361</ele>
        <time>2019-09-14T22:09:08Z</time>
      </trkpt>
      <trkpt lat="44.19096" lon="2.07621">
        <ele>361</ele>
        <time>2019-09-14T22:09:11Z</time>
      </trkpt>
      <trkpt lat="44.19105" lon="2.0765">
        <ele>361</ele>
        <time>2019-09-14T22:09:16Z</time>
      </trkpt>
      <trkpt lat="44.19109" lon="2.07671">
        <ele>360</ele>
        <time>2019-09-14T22:09:20Z</time>
      </trkpt>
      <trkpt lat="44.19111" lon="2.07714">
        <ele>357</ele>
        <time>2019-09-14T22:09:27Z</time>
      </trkpt>
      <trkpt lat="44.19106" lon="2.0778">
        <ele>350</ele>
        <time>2019-09-14T22:09:38Z</time>
      </trkpt>
      <trkpt lat="44.1911" lon="2.07824">
        <ele>349</ele>
        <time>2019-09-14T22:09:45Z</time>
      </trkpt>
      <trkpt lat="44.19115" lon="2.07859">
        <ele>347</ele>
        <time>2019-09-14T22:09:51Z</time>
      </trkpt>
      <trkpt lat="44.19119" lon="2.07873">
        <ele>347</ele>
        <time>2019-09-14T22:09:54Z</time>
      </trkpt>
      <trkpt lat="44.19149" lon="2.07946">
        <ele>350</ele>
        <time>2019-09-14T22:10:08Z</time>
      </trkpt>
      <trkpt lat="44.1918" lon="2.08031">
        <ele>351</ele>
        <time>2019-09-14T22:10:24Z</time>
      </trkpt>
      <trkpt lat="44.1919" lon="2.08073">
        <ele>350</ele>
        <time>2019-09-14T22:10:31Z</time>
      </trkpt>
      <trkpt lat="44.19191" lon="2.08123">
        <ele>344</ele>
        <time>2019-09-14T22:10:40Z</time>
      </trkpt>
      <trkpt lat="44.19194" lon="2.08137">
        <ele>343</ele>
        <time>2019-09-14T22:10:42Z</time>
      </trkpt>
      <trkpt lat="44.192" lon="2.08145">
        <ele>344</ele>
        <time>2019-09-14T22:10:44Z</time>
      </trkpt>
      <trkpt lat="44.19242" lon="2.08186">
        <ele>355</ele>
        <time>2019-09-14T22:10:56Z</time>
      </trkpt>
      <trkpt lat="44.19276" lon="2.08231">
        <ele>358</ele>
        <time>2019-09-14T22:11:07Z</time>
      </trkpt>
      <trkpt lat="44.19282" lon="2.08236">
        <ele>360</ele>
        <time>2019-09-14T22:11:09Z</time>
      </trkpt>
      <trkpt lat="44.19291" lon="2.08236">
        <ele>362</ele>
        <time>2019-09-14T22:11:11Z</time>
      </trkpt>
      <trkpt lat="44.19316" lon="2.08223">
        <ele>372</ele>
        <time>2019-09-14T22:11:17Z</time>
      </trkpt>
      <trkpt lat="44.19324" lon="2.08223">
        <ele>375</ele>
        <time>2019-09-14T22:11:19Z</time>
      </trkpt>
      <trkpt lat="44.19332" lon="2.0823">
        <ele>376</ele>
        <time>2019-09-14T22:11:21Z</time>
      </trkpt>
      <trkpt lat="44.19338" lon="2.0825">
        <ele>375</ele>
        <time>2019-09-14T22:11:25Z</time>
      </trkpt>
      <trkpt lat="44.19348" lon="2.08293">
        <ele>369</ele>
        <time>2019-09-14T22:11:32Z</time>
      </trkpt>
      <trkpt lat="44.19354" lon="2.08304">
        <ele>368</ele>
        <time>2019-09-14T22:11:35Z</time>
      </trkpt>
      <trkpt lat="44.19364" lon="2.08312">
        <ele>368</ele>
        <time>2019-09-14T22:11:37Z</time>
      </trkpt>
      <trkpt lat="44.19381" lon="2.08314">
        <ele>372</ele>
        <time>2019-09-14T22:11:41Z</time>
      </trkpt>
      <trkpt lat="44.19401" lon="2.0831">
        <ele>377</ele>
        <time>2019-09-14T22:11:46Z</time>
      </trkpt>
      <trkpt lat="44.1946" lon="2.08284">
        <ele>393</ele>
        <time>2019-09-14T22:12:01Z</time>
      </trkpt>
      <trkpt lat="44.19475" lon="2.08273">
        <ele>396</ele>
        <time>2019-09-14T22:12:04Z</time>
      </trkpt>
      <trkpt lat="44.19502" lon="2.08239">
        <ele>402</ele>
        <time>2019-09-14T22:12:13Z</time>
      </trkpt>
      <trkpt lat="44.19513" lon="2.08203">
        <ele>410</ele>
        <time>2019-09-14T22:12:20Z</time>
      </trkpt>
      <trkpt lat="44.19506" lon="2.08174">
        <ele>416</ele>
        <time>2019-09-14T22:12:25Z</time>
      </trkpt>
      <trkpt lat="44.19543" lon="2.08139">
        <ele>423</ele>
        <time>2019-09-14T22:12:35Z</time>
      </trkpt>
      <trkpt lat="44.1957" lon="2.08111">
        <ele>429</ele>
        <time>2019-09-14T22:12:43Z</time>
      </trkpt>
      <trkpt lat="44.1962" lon="2.08034">
        <ele>445</ele>
        <time>2019-09-14T22:13:00Z</time>
      </trkpt>
      <trkpt lat="44.19636" lon="2.08015">
        <ele>447</ele>
        <time>2019-09-14T22:13:05Z</time>
      </trkpt>
      <trkpt lat="44.19648" lon="2.08007">
        <ele>448</ele>
        <time>2019-09-14T22:13:08Z</time>
      </trkpt>
      <trkpt lat="44.19653" lon="2.08009">
        <ele>448</ele>
        <time>2019-09-14T22:13:10Z</time>
      </trkpt>
      <trkpt lat="44.19692" lon="2.08053">
        <ele>447</ele>
        <time>2019-09-14T22:13:21Z</time>
      </trkpt>
      <trkpt lat="44.1969" lon="2.08057">
        <ele>446</ele>
        <time>2019-09-14T22:13:22Z</time>
      </trkpt>
      <trkpt lat="44.19697" lon="2.0804">
        <ele>448</ele>
        <time>2019-09-14T22:13:25Z</time>
      </trkpt>
      <trkpt lat="44.19711" lon="2.08027">
        <ele>451</ele>
        <time>2019-09-14T22:13:29Z</time>
      </trkpt>
      <trkpt lat="44.19754" lon="2.08015">
        <ele>457</ele>
        <time>2019-09-14T22:13:40Z</time>
      </trkpt>
      <trkpt lat="44.19768" lon="2.07999">
        <ele>460</ele>
        <time>2019-09-14T22:13:44Z</time>
      </trkpt>
      <trkpt lat="44.19771" lon="2.07993">
        <ele>460</ele>
        <time>2019-09-14T22:13:45Z</time>
      </trkpt>
      <trkpt lat="44.19794" lon="2.08009">
        <ele>464</ele>
        <time>2019-09-14T22:13:51Z</time>
      </trkpt>
      <trkpt lat="44.19811" lon="2.08036">
        <ele>467</ele>
        <time>2019-09-14T22:13:57Z</time>
      </trkpt>
      <trkpt lat="44.19811" lon="2.08036">
        <ele>467</ele>
        <time>2019-09-14T22:13:57Z</time>
      </trkpt>
      <trkpt lat="44.19836" lon="2.08064">
        <ele>471</ele>
        <time>2019-09-14T22:14:04Z</time>
      </trkpt>
      <trkpt lat="44.19836" lon="2.08064">
        <ele>471</ele>
        <time>2019-09-14T22:14:04Z</time>
      </trkpt>
      <trkpt lat="44.19877" lon="2.08097">
        <ele>476</ele>
        <time>2019-09-14T22:14:16Z</time>
      </trkpt>
      <trkpt lat="44.19877" lon="2.08097">
        <ele>476</ele>
        <time>2019-09-14T22:14:16Z</time>
      </trkpt>
      <trkpt lat="44.19904" lon="2.08113">
        <ele>479</ele>
        <time>2019-09-14T22:14:22Z</time>
      </trkpt>
      <trkpt lat="44.19904" lon="2.08113">
        <ele>479</ele>
        <time>2019-09-14T22:14:22Z</time>
      </trkpt>
      <trkpt lat="44.19999" lon="2.08184">
        <ele>492</ele>
        <time>2019-09-14T22:14:48Z</time>
      </trkpt>
      <trkpt lat="44.20001" lon="2.08179">
        <ele>492</ele>
        <time>2019-09-14T22:14:49Z</time>
      </trkpt>
      <trkpt lat="44.20036" lon="2.08213">
        <ele>494</ele>
        <time>2019-09-14T22:14:58Z</time>
      </trkpt>
      <trkpt lat="44.20058" lon="2.08238">
        <ele>495</ele>
        <time>2019-09-14T22:15:05Z</time>
      </trkpt>
      <trkpt lat="44.20077" lon="2.08263">
        <ele>496</ele>
        <time>2019-09-14T22:15:11Z</time>
      </trkpt>
      <trkpt lat="44.20099" lon="2.08289">
        <ele>496</ele>
        <time>2019-09-14T22:15:18Z</time>
      </trkpt>
      <trkpt lat="44.20121" lon="2.08324">
        <ele>495</ele>
        <time>2019-09-14T22:15:26Z</time>
      </trkpt>
      <trkpt lat="44.20228" lon="2.08475">
        <ele>497</ele>
        <time>2019-09-14T22:16:01Z</time>
      </trkpt>
      <trkpt lat="44.20282" lon="2.08548">
        <ele>503</ele>
        <time>2019-09-14T22:16:19Z</time>
      </trkpt>
      <trkpt lat="44.20311" lon="2.08584">
        <ele>506</ele>
        <time>2019-09-14T22:16:28Z</time>
      </trkpt>
      <trkpt lat="44.20334" lon="2.08607">
        <ele>507</ele>
        <time>2019-09-14T22:16:35Z</time>
      </trkpt>
      <trkpt lat="44.20357" lon="2.08624">
        <ele>507</ele>
        <time>2019-09-14T22:16:41Z</time>
      </trkpt>
      <trkpt lat="44.20407" lon="2.08643">
        <ele>508</ele>
        <time>2019-09-14T22:16:53Z</time>
      </trkpt>
      <trkpt lat="44.20422" lon="2.08651">
        <ele>507</ele>
        <time>2019-09-14T22:16:56Z</time>
      </trkpt>
      <trkpt lat="44.20438" lon="2.08674">
        <ele>504</ele>
        <time>2019-09-14T22:17:02Z</time>
      </trkpt>
      <trkpt lat="44.20451" lon="2.08716">
        <ele>502</ele>
        <time>2019-09-14T22:17:09Z</time>
      </trkpt>
      <trkpt lat="44.20456" lon="2.08608">
        <ele>505</ele>
        <time>2019-09-14T22:17:28Z</time>
      </trkpt>
      <trkpt lat="44.20444" lon="2.08492">
        <ele>505</ele>
        <time>2019-09-14T22:17:47Z</time>
      </trkpt>
      <trkpt lat="44.20429" lon="2.08424">
        <ele>505</ele>
        <time>2019-09-14T22:17:59Z</time>
      </trkpt>
      <trkpt lat="44.20426" lon="2.08414">
        <ele>505</ele>
        <time>2019-09-14T22:18:01Z</time>
      </trkpt>
      <trkpt lat="44.20429" lon="2.08424">
        <ele>505</ele>
        <time>2019-09-14T22:18:03Z</time>
      </trkpt>
      <trkpt lat="44.20436" lon="2.08421">
        <ele>504</ele>
        <time>2019-09-14T22:18:04Z</time>
      </trkpt>
      <trkpt lat="44.20447" lon="2.08423">
        <ele>503</ele>
        <time>2019-09-14T22:18:07Z</time>
      </trkpt>
      <trkpt lat="44.20473" lon="2.08435">
        <ele>500</ele>
        <time>2019-09-14T22:18:13Z</time>
      </trkpt>
      <trkpt lat="44.20486" lon="2.08443">
        <ele>498</ele>
        <time>2019-09-14T22:18:17Z</time>
      </trkpt>
      <trkpt lat="44.20497" lon="2.08465">
        <ele>498</ele>
        <time>2019-09-14T22:18:21Z</time>
      </trkpt>
      <trkpt lat="44.20524" lon="2.08531">
        <ele>493</ele>
        <time>2019-09-14T22:18:34Z</time>
      </trkpt>
      <trkpt lat="44.20543" lon="2.08594">
        <ele>490</ele>
        <time>2019-09-14T22:18:45Z</time>
      </trkpt>
      <trkpt lat="44.20576" lon="2.08676">
        <ele>486</ele>
        <time>2019-09-14T22:19:01Z</time>
      </trkpt>
      <trkpt lat="44.20591" lon="2.08724">
        <ele>486</ele>
        <time>2019-09-14T22:19:10Z</time>
      </trkpt>
      <trkpt lat="44.20601" lon="2.08742">
        <ele>485</ele>
        <time>2019-09-14T22:19:14Z</time>
      </trkpt>
      <trkpt lat="44.20611" lon="2.08751">
        <ele>485</ele>
        <time>2019-09-14T22:19:17Z</time>
      </trkpt>
      <trkpt lat="44.20631" lon="2.08758">
        <ele>484</ele>
        <time>2019-09-14T22:19:21Z</time>
      </trkpt>
      <trkpt lat="44.20642" lon="2.08756">
        <ele>483</ele>
        <time>2019-09-14T22:19:24Z</time>
      </trkpt>
      <trkpt lat="44.20651" lon="2.08749">
        <ele>482</ele>
        <time>2019-09-14T22:19:26Z</time>
      </trkpt>
      <trkpt lat="44.20666" lon="2.08725">
        <ele>478</ele>
        <time>2019-09-14T22:19:32Z</time>
      </trkpt>
      <trkpt lat="44.20698" lon="2.08685">
        <ele>475</ele>
        <time>2019-09-14T22:19:42Z</time>
      </trkpt>
      <trkpt lat="44.20719" lon="2.08667">
        <ele>472</ele>
        <time>2019-09-14T22:19:47Z</time>
      </trkpt>
      <trkpt lat="44.20731" lon="2.08663">
        <ele>471</ele>
        <time>2019-09-14T22:19:50Z</time>
      </trkpt>
      <trkpt lat="44.20749" lon="2.08662">
        <ele>471</ele>
        <time>2019-09-14T22:19:55Z</time>
      </trkpt>
      <trkpt lat="44.20763" lon="2.08667">
        <ele>471</ele>
        <time>2019-09-14T22:19:58Z</time>
      </trkpt>
      <trkpt lat="44.20789" lon="2.08696">
        <ele>476</ele>
        <time>2019-09-14T22:20:06Z</time>
      </trkpt>
      <trkpt lat="44.20797" lon="2.08701">
        <ele>476</ele>
        <time>2019-09-14T22:20:08Z</time>
      </trkpt>
      <trkpt lat="44.2081" lon="2.08702">
        <ele>476</ele>
        <time>2019-09-14T22:20:11Z</time>
      </trkpt>
      <trkpt lat="44.20825" lon="2.087">
        <ele>475</ele>
        <time>2019-09-14T22:20:14Z</time>
      </trkpt>
      <trkpt lat="44.20845" lon="2.08695">
        <ele>472</ele>
        <time>2019-09-14T22:20:19Z</time>
      </trkpt>
      <trkpt lat="44.20862" lon="2.08688">
        <ele>470</ele>
        <time>2019-09-14T22:20:23Z</time>
      </trkpt>
      <trkpt lat="44.20891" lon="2.08655">
        <ele>465</ele>
        <time>2019-09-14T22:20:32Z</time>
      </trkpt>
      <trkpt lat="44.20905" lon="2.08646">
        <ele>464</ele>
        <time>2019-09-14T22:20:36Z</time>
      </trkpt>
      <trkpt lat="44.20912" lon="2.08647">
        <ele>465</ele>
        <time>2019-09-14T22:20:37Z</time>
      </trkpt>
      <trkpt lat="44.20923" lon="2.08646">
        <ele>464</ele>
        <time>2019-09-14T22:20:40Z</time>
      </trkpt>
      <trkpt lat="44.20942" lon="2.08631">
        <ele>460</ele>
        <time>2019-09-14T22:20:45Z</time>
      </trkpt>
      <trkpt lat="44.2095" lon="2.08629">
        <ele>459</ele>
        <time>2019-09-14T22:20:47Z</time>
      </trkpt>
      <trkpt lat="44.20954" lon="2.08643">
        <ele>460</ele>
        <time>2019-09-14T22:20:49Z</time>
      </trkpt>
      <trkpt lat="44.20961" lon="2.0868">
        <ele>462</ele>
        <time>2019-09-14T22:20:56Z</time>
      </trkpt>
      <trkpt lat="44.20965" lon="2.08687">
        <ele>462</ele>
        <time>2019-09-14T22:20:57Z</time>
      </trkpt>
      <trkpt lat="44.21002" lon="2.08731">
        <ele>461</ele>
        <time>2019-09-14T22:21:09Z</time>
      </trkpt>
      <trkpt lat="44.21023" lon="2.08767">
        <ele>464</ele>
        <time>2019-09-14T22:21:16Z</time>
      </trkpt>
      <trkpt lat="44.21043" lon="2.08782">
        <ele>466</ele>
        <time>2019-09-14T22:21:22Z</time>
      </trkpt>
      <trkpt lat="44.21079" lon="2.08787">
        <ele>465</ele>
        <time>2019-09-14T22:21:30Z</time>
      </trkpt>
      <trkpt lat="44.21121" lon="2.088">
        <ele>469</ele>
        <time>2019-09-14T22:21:40Z</time>
      </trkpt>
      <trkpt lat="44.2114" lon="2.08801">
        <ele>471</ele>
        <time>2019-09-14T22:21:45Z</time>
      </trkpt>
      <trkpt lat="44.21155" lon="2.08795">
        <ele>471</ele>
        <time>2019-09-14T22:21:48Z</time>
      </trkpt>
      <trkpt lat="44.21168" lon="2.08785">
        <ele>471</ele>
        <time>2019-09-14T22:21:52Z</time>
      </trkpt>
      <trkpt lat="44.2118" lon="2.08768">
        <ele>470</ele>
        <time>2019-09-14T22:21:56Z</time>
      </trkpt>
      <trkpt lat="44.21186" lon="2.08745">
        <ele>468</ele>
        <time>2019-09-14T22:22:00Z</time>
      </trkpt>
      <trkpt lat="44.21189" lon="2.0872">
        <ele>466</ele>
        <time>2019-09-14T22:22:04Z</time>
      </trkpt>
      <trkpt lat="44.21193" lon="2.08705">
        <ele>466</ele>
        <time>2019-09-14T22:22:07Z</time>
      </trkpt>
      <trkpt lat="44.2122" lon="2.08677">
        <ele>467</ele>
        <time>2019-09-14T22:22:15Z</time>
      </trkpt>
      <trkpt lat="44.21234" lon="2.08668">
        <ele>469</ele>
        <time>2019-09-14T22:22:18Z</time>
      </trkpt>
      <trkpt lat="44.21239" lon="2.08668">
        <ele>469</ele>
        <time>2019-09-14T22:22:19Z</time>
      </trkpt>
      <trkpt lat="44.21248" lon="2.08674">
        <ele>471</ele>
        <time>2019-09-14T22:22:22Z</time>
      </trkpt>
      <trkpt lat="44.21249" lon="2.08668">
        <ele>471</ele>
        <time>2019-09-14T22:22:23Z</time>
      </trkpt>
      <trkpt lat="44.21286" lon="2.08601">
        <ele>461</ele>
        <time>2019-09-14T22:22:37Z</time>
      </trkpt>
      <trkpt lat="44.21334" lon="2.08522">
        <ele>456</ele>
        <time>2019-09-14T22:22:54Z</time>
      </trkpt>
      <trkpt lat="44.21339" lon="2.08503">
        <ele>455</ele>
        <time>2019-09-14T22:22:58Z</time>
      </trkpt>
      <trkpt lat="44.21343" lon="2.08477">
        <ele>453</ele>
        <time>2019-09-14T22:23:02Z</time>
      </trkpt>
      <trkpt lat="44.2134" lon="2.08366">
        <ele>447</ele>
        <time>2019-09-14T22:23:21Z</time>
      </trkpt>
      <trkpt lat="44.21341" lon="2.08328">
        <ele>447</ele>
        <time>2019-09-14T22:23:27Z</time>
      </trkpt>
      <trkpt lat="44.21344" lon="2.08297">
        <ele>447</ele>
        <time>2019-09-14T22:23:32Z</time>
      </trkpt>
      <trkpt lat="44.21351" lon="2.08257">
        <ele>448</ele>
        <time>2019-09-14T22:23:39Z</time>
      </trkpt>
      <trkpt lat="44.21358" lon="2.08233">
        <ele>447</ele>
        <time>2019-09-14T22:23:43Z</time>
      </trkpt>
      <trkpt lat="44.21381" lon="2.08177">
        <ele>447</ele>
        <time>2019-09-14T22:23:54Z</time>
      </trkpt>
      <trkpt lat="44.21406" lon="2.08125">
        <ele>448</ele>
        <time>2019-09-14T22:24:05Z</time>
      </trkpt>
      <trkpt lat="44.21414" lon="2.08106">
        <ele>448</ele>
        <time>2019-09-14T22:24:08Z</time>
      </trkpt>
      <trkpt lat="44.21428" lon="2.08014">
        <ele>447</ele>
        <time>2019-09-14T22:24:24Z</time>
      </trkpt>
      <trkpt lat="44.21438" lon="2.07884">
        <ele>444</ele>
        <time>2019-09-14T22:24:46Z</time>
      </trkpt>
      <trkpt lat="44.2145" lon="2.07803">
        <ele>440</ele>
        <time>2019-09-14T22:25:00Z</time>
      </trkpt>
      <trkpt lat="44.21454" lon="2.07759">
        <ele>438</ele>
        <time>2019-09-14T22:25:07Z</time>
      </trkpt>
      <trkpt lat="44.21454" lon="2.07722">
        <ele>436</ele>
        <time>2019-09-14T22:25:13Z</time>
      </trkpt>
      <trkpt lat="44.21451" lon="2.07679">
        <ele>432</ele>
        <time>2019-09-14T22:25:21Z</time>
      </trkpt>
      <trkpt lat="44.21449" lon="2.07663">
        <ele>432</ele>
        <time>2019-09-14T22:25:23Z</time>
      </trkpt>
      <trkpt lat="44.21452" lon="2.07627">
        <ele>430</ele>
        <time>2019-09-14T22:25:29Z</time>
      </trkpt>
      <trkpt lat="44.21449" lon="2.07591">
        <ele>428</ele>
        <time>2019-09-14T22:25:36Z</time>
      </trkpt>
      <trkpt lat="44.21457" lon="2.07546">
        <ele>427</ele>
        <time>2019-09-14T22:25:43Z</time>
      </trkpt>
      <trkpt lat="44.21461" lon="2.0754">
        <ele>427</ele>
        <time>2019-09-14T22:25:45Z</time>
      </trkpt>
      <trkpt lat="44.21463" lon="2.07528">
        <ele>426</ele>
        <time>2019-09-14T22:25:47Z</time>
      </trkpt>
      <trkpt lat="44.21464" lon="2.07496">
        <ele>425</ele>
        <time>2019-09-14T22:25:52Z</time>
      </trkpt>
      <trkpt lat="44.21463" lon="2.07471">
        <ele>426</ele>
        <time>2019-09-14T22:25:56Z</time>
      </trkpt>
      <trkpt lat="44.21368" lon="2.07483">
        <ele>413</ele>
        <time>2019-09-14T22:26:19Z</time>
      </trkpt>
      <trkpt lat="44.21301" lon="2.07489">
        <ele>400</ele>
        <time>2019-09-14T22:26:34Z</time>
      </trkpt>
      <trkpt lat="44.21301" lon="2.07489">
        <ele>400</ele>
        <time>2019-09-14T22:26:34Z</time>
      </trkpt>
      <trkpt lat="44.21255" lon="2.07498">
        <ele>391</ele>
        <time>2019-09-14T22:26:45Z</time>
      </trkpt>
      <trkpt lat="44.21255" lon="2.07498">
        <ele>391</ele>
        <time>2019-09-14T22:26:45Z</time>
      </trkpt>
      <trkpt lat="44.21166" lon="2.07338">
        <ele>381</ele>
        <time>2019-09-14T22:27:19Z</time>
      </trkpt>
    </trkseg>
  </trk>
</gpx>